Time;durP1;ratioP1;P1;durP2;ratioP2;P2;SDS_P1;SDS_P2;PMS_P1;PMS_P2;Temp;Humidity;BMP_temperature;BMP_pressure;BME280_temperature;BME280_humidity;BME280_pressure;Samples;Min_cycle;Max_cycle;Signal;HPM_P1;HPM_P2
2023/12/06 00:00:13;;;;;;;;;;;4.80;55.80;;;3.20;60.39;100727.34;12255347;19;19911;-87
2023/12/06 00:04:15;;;;;;;;;;;4.80;55.80;;;3.17;60.31;100715.38;12255244;19;19918;-87
2023/12/06 00:08:17;;;;;;;;;;;4.80;55.80;;;3.19;60.29;100715.34;12257564;19;19922;-87
2023/12/06 00:12:18;;;;;;;;;;;4.90;55.90;;;3.20;60.50;100714.44;12252014;19;20273;-87
2023/12/06 00:16:19;;;;;;;;;;;4.90;55.90;;;3.14;60.39;100699.97;12258309;19;19934;-87
2023/12/06 00:20:21;;;;;;;;;;;4.90;55.90;;;3.25;60.46;100716.03;12254615;19;19911;-87
2023/12/06 00:24:22;;;;;;;;;;;4.90;55.90;;;3.04;60.63;100678.72;12254494;19;19922;-86
2023/12/06 00:28:24;;;;;;;;;;;4.90;55.90;;;3.15;60.67;100701.66;12254468;19;19910;-87
2023/12/06 00:32:26;;;;;;;;;;;4.90;55.90;;;3.25;60.25;100713.44;12251587;19;19944;-87
2023/12/06 00:36:29;;;;;;;;;;;5.00;56.00;;;3.23;60.39;100704.88;12257323;19;20497;-86
2023/12/06 00:40:30;;;;;;;;;;;4.90;55.90;;;2.97;60.40;100664.28;12252565;19;19925;-87
2023/12/06 00:44:32;;;;;;;;;;;5.20;56.00;;;3.14;60.38;100699.97;12253923;19;19921;-87
2023/12/06 00:48:34;;;;;;;;;;;5.00;56.00;;;3.23;60.32;100715.22;12256216;19;19907;-87
2023/12/06 00:52:35;;;;;;;;;;;5.10;56.00;;;3.26;60.60;100714.28;12254331;19;20276;-87
2023/12/06 00:56:37;;;;;;;;;;;5.00;55.90;;;2.95;60.55;100673.78;12255152;19;20346;-87
2023/12/06 01:00:39;;;;;;;;;;;5.00;56.10;;;3.23;60.27;100715.22;12252238;19;19925;-87
2023/12/06 01:04:40;;;;;;;;;;;5.20;56.20;;;3.13;60.43;100698.25;12250933;19;19919;-87
2023/12/06 01:08:42;;;;;;;;;;;4.90;55.90;;;3.31;60.44;100726.19;12254438;19;19927;-87
2023/12/06 01:12:43;;;;;;;;;;;4.90;55.90;;;3.07;60.41;100693.25;12253631;19;19919;-86
2023/12/06 01:16:45;;;;;;;;;;;5.00;56.10;;;3.30;60.70;100726.25;12255056;19;19942;-87
2023/12/06 01:20:47;;;;;;;;;;;5.00;56.10;;;3.31;60.60;100736.50;12252725;19;19926;-87
2023/12/06 01:24:48;;;;;;;;;;;5.00;56.00;;;3.34;60.48;100740.75;12251996;19;20004;-87
2023/12/06 01:28:50;;;;;;;;;;;5.00;56.00;;;3.25;60.53;100716.03;12254150;19;19923;-87
2023/12/06 01:32:52;;;;;;;;;;;5.10;56.10;;;3.29;60.58;100720.25;12252758;19;20306;-87
2023/12/06 01:36:53;;;;;;;;;;;5.00;56.30;;;3.27;60.43;100713.41;12253048;19;19915;-87
2023/12/06 01:40:55;;;;;;;;;;;5.00;56.10;;;3.18;60.60;100698.16;12251169;19;19919;-87
2023/12/06 01:44:56;;;;;;;;;;;5.00;56.10;;;3.39;60.64;100730.31;12251424;19;19918;-87
2023/12/06 01:48:59;;;;;;;;;;;5.10;56.10;;;3.28;60.39;100710.78;12254430;19;19919;-87
2023/12/06 01:53:01;;;;;;;;;;;5.00;56.10;;;3.38;60.66;100734.63;12252924;19;19915;-87
2023/12/06 01:57:02;;;;;;;;;;;5.00;56.10;;;3.38;60.53;100729.47;12250951;19;19918;-87
2023/12/06 02:01:05;;;;;;;;;;;5.10;56.30;;;3.40;60.47;100737.16;12249706;19;19929;-87
2023/12/06 02:05:07;;;;;;;;;;;5.00;56.10;;;3.38;60.65;100737.22;12251042;19;19926;-87
2023/12/06 02:09:12;;;;;;;;;;;5.10;56.20;;;3.12;60.59;100685.41;12251491;19;19915;-87
2023/12/06 02:13:13;;;;;;;;;;;5.10;56.20;;;3.47;60.53;100742.13;12249200;19;19923;-88
2023/12/06 02:17:15;;;;;;;;;;;5.10;56.20;;;3.33;60.60;100705.50;12251229;19;19911;-88
2023/12/06 02:21:17;;;;;;;;;;;5.10;56.30;;;3.44;60.42;100718.16;12246589;19;19923;-88
2023/12/06 02:25:18;;;;;;;;;;;5.10;56.20;;;3.40;60.57;100712.19;12247632;19;19914;-88
2023/12/06 02:29:22;;;;;;;;;;;5.10;56.20;;;3.40;60.71;100713.94;12247459;19;19962;-88
2023/12/06 02:33:26;;;;;;;;;;;5.30;56.30;;;3.47;60.54;100724.06;12249006;19;20314;-88
2023/12/06 02:37:27;;;;;;;;;;;5.50;56.50;;;3.49;60.47;100719.72;12248281;19;19914;-88
2023/12/06 02:41:29;;;;;;;;;;;5.20;56.40;;;3.50;60.54;100723.97;12241574;19;19938;-88
2023/12/06 02:45:31;;;;;;;;;;;5.40;56.40;;;3.28;60.58;100687.56;12246158;19;19986;-88
2023/12/06 02:49:32;;;;;;;;;;;5.20;56.40;;;3.36;60.60;100689.09;12246502;19;19940;-88
2023/12/06 02:53:33;;;;;;;;;;;5.20;56.40;;;3.55;60.50;100724.72;12246919;19;19931;-88
2023/12/06 02:57:35;;;;;;;;;;;5.20;56.40;;;3.46;60.68;100703.47;12248281;19;19997;-88
2023/12/06 03:01:36;;;;;;;;;;;5.20;56.40;;;3.58;60.59;100705.72;12246464;19;19919;-88
2023/12/06 03:05:38;;;;;;;;;;;5.20;56.40;;;3.36;60.76;100677.03;12245651;19;19911;-87
2023/12/06 03:09:40;;;;;;;;;;;5.20;56.40;;;3.36;60.51;100669.31;12246819;19;19914;-88
2023/12/06 03:13:41;;;;;;;;;;;5.30;56.40;;;3.29;60.66;100658.31;12248098;19;19915;-88
2023/12/06 03:17:43;;;;;;;;;;;5.50;56.60;;;3.62;60.70;100715.09;12247971;19;19926;-88
2023/12/06 03:21:45;;;;;;;;;;;5.30;56.50;;;3.59;60.61;100707.41;12243833;19;19918;-88
2023/12/06 03:25:47;;;;;;;;;;;5.30;56.50;;;3.42;60.54;100679.44;12245127;19;19915;-88
2023/12/06 03:29:48;;;;;;;;;;;5.30;56.50;;;3.70;60.62;100718.31;12246914;19;19944;-88
2023/12/06 03:33:50;;;;;;;;;;;5.30;56.50;;;3.58;60.74;100699.72;12245987;19;19915;-88
2023/12/06 03:37:51;;;;;;;;;;;5.60;56.60;;;3.64;60.80;100712.44;12248118;19;19917;-88
2023/12/06 03:41:53;;;;;;;;;;;5.30;56.50;;;3.55;60.57;100696.31;12242805;19;19975;-88
2023/12/06 03:45:54;;;;;;;;;;;5.30;56.40;;;3.54;60.50;100702.38;12247425;19;19919;-88
2023/12/06 03:49:56;;;;;;;;;;;5.40;56.40;;;3.52;60.46;100693.81;12244274;19;19915;-88
2023/12/06 03:53:58;;;;;;;;;;;5.40;56.40;;;3.66;60.70;100723.59;12246981;19;19919;-88
2023/12/06 03:57:59;;;;;;;;;;;5.30;56.40;;;3.66;60.65;100718.44;12247330;19;19967;-88
2023/12/06 04:02:01;;;;;;;;;;;5.30;56.50;;;3.62;60.74;100717.66;12242216;19;19983;-88
2023/12/06 04:06:03;;;;;;;;;;;5.30;56.40;;;3.58;60.57;100710.03;12257408;19;19907;-88
2023/12/06 04:10:05;;;;;;;;;;;5.30;56.40;;;3.64;60.55;100727.94;12254779;19;19922;-88
2023/12/06 04:14:09;;;;;;;;;;;5.30;56.40;;;3.53;60.64;100712.72;12258102;19;19943;-88
2023/12/06 04:18:11;;;;;;;;;;;5.30;56.50;;;3.35;60.63;100675.38;12257549;19;19925;-88
2023/12/06 04:22:13;;;;;;;;;;;5.50;56.60;;;3.64;60.61;100723.63;12252439;19;19992;-88
2023/12/06 04:26:14;;;;;;;;;;;5.20;56.60;;;3.58;60.54;100713.47;12257041;19;19915;-88
2023/12/06 04:30:16;;;;;;;;;;;5.30;56.60;;;3.20;60.43;100655.09;12255759;19;19925;-88
2023/12/06 04:34:18;;;;;;;;;;;5.20;56.40;;;3.57;60.52;100721.25;12257775;19;19914;-88
2023/12/06 04:38:20;;;;;;;;;;;5.50;56.80;;;3.62;60.68;100724.53;12256723;19;19926;-88
2023/12/06 04:42:21;;;;;;;;;;;5.20;56.90;;;3.60;60.77;100718.59;12251274;19;19911;-88
2023/12/06 04:46:23;;;;;;;;;;;5.20;56.60;;;3.54;60.54;100714.44;12254983;19;19922;-88
2023/12/06 04:50:25;;;;;;;;;;;5.20;56.60;;;3.58;60.84;100713.47;12251507;19;19947;-88
2023/12/06 04:54:27;;;;;;;;;;;5.20;56.60;;;3.60;60.85;100727.19;12255155;19;19915;-88
2023/12/06 04:58:28;;;;;;;;;;;5.30;56.60;;;3.65;60.68;100721.91;12253965;19;19922;-88
2023/12/06 05:02:30;;;;;;;;;;;5.20;56.70;;;3.57;60.71;100714.34;12253474;19;19914;-88
2023/12/06 05:06:31;;;;;;;;;;;5.30;56.70;;;3.48;60.80;100699.97;12254544;19;20242;-88
2023/12/06 05:10:33;;;;;;;;;;;5.40;56.80;;;3.59;60.74;100711.72;12250310;19;19919;-88
2023/12/06 05:14:34;;;;;;;;;;;5.20;56.70;;;3.68;60.66;100721.81;12247819;19;20242;-88
2023/12/06 05:18:36;;;;;;;;;;;5.30;56.70;;;3.67;60.60;100720.97;12253389;19;19919;-88
2023/12/06 05:22:37;;;;;;;;;;;5.30;56.80;;;3.68;60.70;100722.66;12252678;19;19918;-87
2023/12/06 05:26:39;;;;;;;;;;;5.30;56.70;;;3.60;60.67;100708.28;12254298;19;20348;-88
2023/12/06 05:30:41;;;;;;;;;;;5.20;56.50;;;3.59;60.76;100716.88;12249860;19;19915;-88
2023/12/06 05:34:42;;;;;;;;;;;5.20;56.60;;;3.50;60.68;100702.50;12246502;19;19915;-88
2023/12/06 05:38:44;;;;;;;;;;;5.20;56.50;;;3.61;60.75;100723.69;12253208;19;20241;-88
2023/12/06 05:42:46;;;;;;;;;;;5.50;56.70;;;3.60;60.82;100722.00;12250644;19;20234;-88
2023/12/06 05:46:48;;;;;;;;;;;5.30;56.70;;;3.61;60.64;100725.44;12252052;19;19925;-88
2023/12/06 05:50:49;;;;;;;;;;;5.30;56.60;;;3.56;60.85;100712.66;12249490;19;19944;-88
2023/12/06 05:54:51;;;;;;;;;;;5.30;56.60;;;3.60;60.85;100729.75;12250928;19;19925;-88
2023/12/06 05:58:53;;;;;;;;;;;5.40;56.60;;;3.57;60.62;100729.84;12248921;19;19915;-88
2023/12/06 06:02:57;;;;;;;;;;;5.20;56.70;;;3.47;60.61;100713.75;12249634;19;19918;-88
2023/12/06 06:06:58;;;;;;;;;;;5.20;56.60;;;3.54;60.71;100715.28;12250659;19;19932;-88
2023/12/06 06:11:01;;;;;;;;;;;5.20;56.70;;;3.58;60.78;100726.38;12247223;19;19926;-88
2023/12/06 06:15:04;;;;;;;;;;;5.20;56.70;;;3.50;60.53;100718.81;12252086;19;20353;-88
2023/12/06 06:19:06;;;;;;;;;;;5.20;56.60;;;3.42;60.52;100712.16;12247911;19;19919;-88
2023/12/06 06:23:07;;;;;;;;;;;5.50;56.70;;;3.58;60.69;100730.69;12247479;19;19922;-87
2023/12/06 06:27:09;;;;;;;;;;;5.30;56.70;;;3.43;60.70;100711.28;12247000;19;19930;-88
2023/12/06 06:31:11;;;;;;;;;;;5.20;56.60;;;3.57;60.63;100739.34;12247146;19;19923;-87
2023/12/06 06:35:13;;;;;;;;;;;5.20;56.50;;;3.45;60.79;100722.41;12248748;19;19915;-88
2023/12/06 06:39:14;;;;;;;;;;;5.20;56.60;;;3.46;60.68;100724.97;12247395;19;19919;-88
2023/12/06 06:43:16;;;;;;;;;;;5.20;56.70;;;3.50;60.87;100738.63;12245042;19;19919;-87
2023/12/06 06:47:17;;;;;;;;;;;5.50;56.70;;;3.47;60.64;100731.81;12249359;19;20325;-88
2023/12/06 06:51:19;;;;;;;;;;;5.20;56.70;;;3.58;60.60;100751.34;12244895;19;19919;-88
2023/12/06 06:55:21;;;;;;;;;;;5.20;56.70;;;3.59;60.79;100747.88;12248331;19;20286;-87
2023/12/06 06:59:22;;;;;;;;;;;5.20;56.70;;;3.46;60.87;100743.03;12247121;19;19915;-87
2023/12/06 07:03:24;;;;;;;;;;;5.20;56.90;;;3.49;60.92;100748.13;12245291;19;19925;-87
2023/12/06 07:07:25;;;;;;;;;;;5.20;56.70;;;3.45;60.88;100749.06;12247885;19;19922;-87
2023/12/06 07:11:28;;;;;;;;;;;5.20;56.70;;;3.47;60.88;100755.03;12243017;19;19918;-87
2023/12/06 07:15:30;;;;;;;;;;;5.20;56.80;;;3.57;60.71;100766.00;12246142;19;20398;-87
2023/12/06 07:19:31;;;;;;;;;;;5.50;56.90;;;3.44;60.86;100744.78;12244868;19;19935;-87
2023/12/06 07:23:33;;;;;;;;;;;5.20;56.60;;;3.53;60.72;100759.19;12244488;19;19922;-87
2023/12/06 07:27:34;;;;;;;;;;;5.20;56.80;;;3.33;60.68;100739.06;12246542;19;19930;-87
2023/12/06 07:31:37;;;;;;;;;;;5.30;56.80;;;3.30;60.75;100731.41;12242847;19;19950;-88
2023/12/06 07:35:40;;;;;;;;;;;5.20;56.70;;;3.55;60.80;100778.09;12246647;19;19952;-87
2023/12/06 07:39:42;;;;;;;;;;;5.20;56.70;;;3.54;60.64;100782.41;12255005;19;19940;-87
2023/12/06 07:43:43;;;;;;;;;;;5.20;56.70;;;3.43;60.87;100768.94;12255818;19;20292;-87
2023/12/06 07:47:45;;;;;;;;;;;5.20;56.70;;;3.46;60.85;100774.00;12258898;19;19915;-86
2023/12/06 07:51:46;;;;;;;;;;;5.30;56.70;;;3.57;60.86;100790.97;12252029;19;19923;-86
2023/12/06 07:55:47;;;;;;;;;;;5.20;56.70;;;3.52;60.85;100779.00;12258067;19;19919;-87
2023/12/06 07:59:50;;;;;;;;;;;5.30;56.70;;;3.62;60.79;100789.09;12253111;19;19923;-87
2023/12/06 08:03:52;;;;;;;;;;;5.20;56.80;;;3.23;60.79;100735.00;12255188;19;19974;-86
2023/12/06 08:07:53;;;;;;;;;;;5.20;56.80;;;3.64;61.09;100797.66;12256324;19;19914;-86
2023/12/06 08:11:56;;;;;;;;;;;5.40;56.90;;;3.51;60.90;100782.50;12252622;19;19911;-87
2023/12/06 08:15:58;;;;;;;;;;;5.40;57.00;;;3.35;60.88;100760.53;12254593;19;19923;-86
2023/12/06 08:20:00;;;;;;;;;;;5.30;56.90;;;3.47;60.90;100780.84;12254723;19;19921;-86
2023/12/06 08:24:02;;;;;;;;;;;5.20;57.10;;;3.54;60.77;100794.47;12249502;19;19919;-85
2023/12/06 08:28:04;;;;;;;;;;;5.20;56.80;;;3.64;61.11;100810.56;12253843;19;19936;-86
2023/12/06 08:32:07;;;;;;;;;;;5.20;56.80;;;3.18;61.03;100736.84;12247208;19;19922;-87
2023/12/06 08:36:09;;;;;;;;;;;5.20;56.90;;;3.68;60.88;100815.63;12251319;19;19911;-87
2023/12/06 08:40:11;;;;;;;;;;;5.20;56.90;;;3.59;61.03;100794.34;12250543;19;19948;-86
2023/12/06 08:44:12;;;;;;;;;;;5.30;56.90;;;3.58;61.02;100790.91;12247196;19;19934;-87
2023/12/06 08:48:14;;;;;;;;;;;5.30;57.00;;;3.63;61.00;100801.97;12251438;19;19919;-86
2023/12/06 08:52:15;;;;;;;;;;;5.60;57.20;;;3.71;60.92;100804.38;12246231;19;19921;-87
2023/12/06 08:56:17;;;;;;;;;;;5.40;57.10;;;3.72;60.99;100803.47;12249645;19;19925;-87
2023/12/06 09:00:18;;;;;;;;;;;5.40;57.10;;;3.80;60.90;100818.78;12248258;19;19919;-87
2023/12/06 09:04:20;;;;;;;;;;;5.40;57.00;;;3.43;60.80;100763.75;12246925;19;19926;-87
2023/12/06 09:08:21;;;;;;;;;;;5.40;57.00;;;3.76;60.93;100810.25;12250280;19;19936;-87
2023/12/06 09:12:23;;;;;;;;;;;5.40;57.00;;;3.77;60.99;100809.38;12246471;19;20298;-87
2023/12/06 09:16:25;;;;;;;;;;;5.40;56.90;;;3.74;60.87;100809.44;12251515;19;19919;-86
2023/12/06 09:20:26;;;;;;;;;;;5.40;56.90;;;3.81;61.00;100820.47;12246862;19;20010;-86
2023/12/06 09:24:28;;;;;;;;;;;5.40;57.00;;;3.83;61.15;100824.69;12246632;19;19931;-86
2023/12/06 09:28:29;;;;;;;;;;;5.50;57.00;;;3.80;60.92;100819.63;12249231;19;19926;-86
2023/12/06 09:32:30;;;;;;;;;;;5.50;57.00;;;3.76;60.96;100813.69;12250341;19;20333;-88
2023/12/06 09:36:32;;;;;;;;;;;5.50;57.00;;;3.61;60.88;100790.00;12250720;19;19929;-86
2023/12/06 09:40:34;;;;;;;;;;;5.50;57.00;;;3.70;60.97;100798.38;12248841;19;19918;-86
2023/12/06 09:44:41;;;;;;;;;;;5.60;57.20;;;3.78;61.10;100805.91;12248564;19;19919;-86
2023/12/06 09:48:42;;;;;;;;;;;5.50;57.10;;;3.78;61.01;100808.50;12251578;19;19998;-85
2023/12/06 09:52:49;;;;;;;;;;;5.60;57.10;;;3.83;61.13;100809.19;12250845;19;19971;-87
2023/12/06 09:56:50;;;;;;;;;;;5.60;57.20;;;4.01;60.98;100838.88;12248836;19;19921;-87
2023/12/06 10:00:52;;;;;;;;;;;5.60;57.20;;;3.87;60.91;100810.84;12243524;19;20352;-86
2023/12/06 10:04:53;;;;;;;;;;;5.60;57.20;;;3.86;61.13;100803.97;12248446;19;19922;-86
2023/12/06 10:08:55;;;;;;;;;;;5.60;57.20;;;3.94;61.14;100819.25;12240294;19;20250;-86
2023/12/06 10:12:56;;;;;;;;;;;5.70;57.30;;;3.96;61.05;100820.06;12248744;19;19922;-85
2023/12/06 10:16:58;;;;;;;;;;;5.70;57.20;;;3.77;61.03;100791.28;12249113;19;20277;-85
2023/12/06 10:20:59;;;;;;;;;;;5.70;57.20;;;4.08;60.95;100834.38;12244097;19;19919;-85
2023/12/06 10:25:02;;;;;;;;;;;5.70;57.30;;;4.04;61.02;100825.88;12244213;19;19911;-85
2023/12/06 10:29:04;;;;;;;;;;;5.70;57.20;;;4.15;61.13;100836.78;12247258;19;19937;-85
2023/12/06 10:33:07;;;;;;;;;;;5.80;57.20;;;4.12;61.01;100830.84;12248736;19;19919;-85
2023/12/06 10:37:11;;;;;;;;;;;5.70;57.20;;;4.11;61.19;100829.16;12245970;19;19939;-86
2023/12/06 10:41:15;;;;;;;;;;;5.70;57.30;;;4.09;60.94;100826.59;12244799;19;19915;-85
2023/12/06 10:45:17;;;;;;;;;;;5.70;57.20;;;4.06;60.98;100811.19;12243530;19;19932;-85
2023/12/06 10:49:19;;;;;;;;;;;5.80;57.40;;;3.95;61.31;100793.41;12245300;19;19922;-85
2023/12/06 10:53:21;;;;;;;;;;;5.80;57.40;;;4.13;61.36;100811.84;12246189;19;19914;-85
2023/12/06 10:57:23;;;;;;;;;;;5.80;57.40;;;4.24;61.23;100835.69;12245222;19;20245;-86
2023/12/06 11:01:25;;;;;;;;;;;5.80;57.50;;;4.18;61.14;100810.00;12241599;19;19925;-86
2023/12/06 11:05:30;;;;;;;;;;;5.80;57.50;;;4.24;61.25;100816.72;12244710;19;19919;-86
2023/12/06 11:09:49;;;;;;;;;;;5.90;57.50;;;4.27;61.13;100827.84;12244992;19;19911;-86
2023/12/06 11:14:00;;;;;;;;;;;5.90;57.40;;;4.34;61.05;100818.19;12245486;19;19926;-87
2023/12/06 11:18:18;;;;;;;;;;;5.90;57.30;;;4.25;61.07;100801.19;12245080;19;19918;-87
2023/12/06 11:22:23;;;;;;;;;;;5.90;57.40;;;4.37;61.10;100811.19;12242738;19;19918;-87
2023/12/06 11:26:26;;;;;;;;;;;6.00;57.40;;;4.44;61.09;100822.22;12245168;19;19907;-87
2023/12/06 11:30:28;;;;;;;;;;;6.00;57.40;;;3.97;61.17;100734.78;12243487;19;19922;-87
2023/12/06 11:34:36;;;;;;;;;;;6.00;57.30;;;4.19;61.25;100765.19;12243664;19;19923;-87
2023/12/06 11:38:39;;;;;;;;;;;6.10;57.40;;;4.46;61.28;100804.91;12247075;19;19931;-87
2023/12/06 11:42:41;;;;;;;;;;;6.10;57.40;;;4.46;61.35;100798.91;12243222;19;19927;-87
2023/12/06 11:46:50;;;;;;;;;;;6.20;57.40;;;4.30;61.24;100770.06;12244482;19;19914;-87
2023/12/06 11:50:52;;;;;;;;;;;6.20;57.40;;;4.53;61.09;100810.75;12244447;19;20307;-87
2023/12/06 11:54:53;;;;;;;;;;;6.10;57.20;;;4.47;61.05;100801.44;12246666;19;19926;-87
2023/12/06 11:58:56;;;;;;;;;;;6.20;57.30;;;4.57;60.95;100820.97;12245358;19;20261;-87
2023/12/06 12:02:59;;;;;;;;;;;6.20;57.20;;;4.58;60.99;100811.47;12245368;19;20295;-87
2023/12/06 12:07:01;;;;;;;;;;;6.20;57.20;;;4.54;61.26;100813.31;12247769;19;19919;-87
2023/12/06 12:11:03;;;;;;;;;;;6.20;57.20;;;4.49;61.29;100801.41;12239010;19;19922;-86
2023/12/06 12:15:05;;;;;;;;;;;6.20;57.20;;;4.54;61.09;100808.13;12242993;19;19998;-86
2023/12/06 12:19:08;;;;;;;;;;;6.20;57.20;;;4.52;61.27;100807.31;12241259;19;19911;-86
2023/12/06 12:23:11;;;;;;;;;;;6.20;57.20;;;4.54;61.27;100800.38;12241555;19;19948;-86
2023/12/06 12:27:12;;;;;;;;;;;6.20;57.20;;;4.38;61.18;100776.69;12253633;19;19976;-87
2023/12/06 12:31:17;;;;;;;;;;;6.30;57.20;;;4.61;61.02;100819.13;12251623;19;19927;-87
2023/12/06 12:35:19;;;;;;;;;;;6.30;57.50;;;4.63;61.06;100825.13;12255341;19;19987;-86
2023/12/06 12:39:21;;;;;;;;;;;6.20;57.10;;;4.58;61.10;100811.47;12253140;19;19978;-86
2023/12/06 12:43:22;;;;;;;;;;;6.30;57.10;;;4.61;61.12;100811.38;12252754;19;19915;-88
2023/12/06 12:47:24;;;;;;;;;;;6.30;57.20;;;4.64;61.05;100819.03;12253842;19;19922;-87
2023/12/06 12:51:26;;;;;;;;;;;6.30;57.20;;;4.59;61.21;100813.16;12250792;19;19911;-87
2023/12/06 12:55:27;;;;;;;;;;;6.30;57.20;;;4.62;60.98;100815.69;12253658;19;19919;-86
2023/12/06 12:59:32;;;;;;;;;;;6.50;57.20;;;4.59;61.14;100820.91;12252919;19;19919;-86
2023/12/06 13:03:34;;;;;;;;;;;6.30;57.20;;;4.59;61.22;100820.91;12252197;19;19923;-86
2023/12/06 13:07:35;;;;;;;;;;;6.30;57.20;;;4.64;61.29;100837.16;12254323;19;19922;-86
2023/12/06 13:11:36;;;;;;;;;;;6.30;57.20;;;4.60;61.24;100832.97;12249653;19;19982;-86
2023/12/06 13:15:38;;;;;;;;;;;6.30;57.20;;;4.72;61.08;100858.47;12252765;19;19951;-86
2023/12/06 13:19:39;;;;;;;;;;;6.30;57.20;;;4.69;61.31;100850.78;12253044;19;20576;-86
2023/12/06 13:23:41;;;;;;;;;;;6.40;57.20;;;4.61;61.23;100832.06;12251724;19;19907;-86
2023/12/06 13:27:42;;;;;;;;;;;6.40;57.20;;;4.69;61.17;100842.19;12255534;19;19915;-87
2023/12/06 13:31:45;;;;;;;;;;;6.40;57.20;;;4.74;61.33;100853.25;12248628;19;19939;-87
2023/12/06 13:35:47;;;;;;;;;;;6.40;57.10;;;4.63;61.12;100838.88;12254604;19;19923;-87
2023/12/06 13:39:48;;;;;;;;;;;6.40;57.20;;;4.57;61.14;100839.06;12251283;19;19934;-87
2023/12/06 13:43:50;;;;;;;;;;;6.70;57.20;;;4.65;61.17;100860.38;12253852;19;19919;-87
2023/12/06 13:47:52;;;;;;;;;;;6.40;57.00;;;4.62;61.09;100852.72;12250966;19;19915;-88
2023/12/06 13:51:54;;;;;;;;;;;6.60;57.10;;;4.67;61.23;100862.91;12249288;19;19915;-88
2023/12/06 13:55:55;;;;;;;;;;;6.30;57.00;;;4.69;61.23;100868.91;12251168;19;19925;-87
2023/12/06 13:59:56;;;;;;;;;;;6.50;57.20;;;4.43;61.15;100830.88;12248852;19;19948;-88
2023/12/06 14:03:58;;;;;;;;;;;6.50;57.10;;;4.62;61.23;100854.47;12247082;19;20365;-88
2023/12/06 14:07:59;;;;;;;;;;;6.30;57.10;;;4.63;61.15;100858.75;12252555;19;19952;-87
2023/12/06 14:12:01;;;;;;;;;;;6.30;57.10;;;4.69;61.10;100881.00;12245530;19;19918;-87
2023/12/06 14:16:03;;;;;;;;;;;6.40;57.10;;;4.57;61.20;100859.75;12250732;19;19997;-88
2023/12/06 14:20:06;;;;;;;;;;;6.30;57.10;;;4.57;61.21;100866.69;12247428;19;19998;-88
2023/12/06 14:24:07;;;;;;;;;;;6.30;57.10;;;4.53;61.16;100855.56;12245956;19;19936;-88
2023/12/06 14:28:08;;;;;;;;;;;6.30;57.10;;;4.68;61.19;100890.50;12248980;19;19918;-88
2023/12/06 14:32:10;;;;;;;;;;;6.30;57.10;;;4.54;61.24;100875.38;12245003;19;19919;-88
2023/12/06 14:36:12;;;;;;;;;;;6.30;57.00;;;4.66;61.02;100905.19;12249036;19;20431;-89
2023/12/06 14:40:13;;;;;;;;;;;6.60;57.20;;;4.52;61.04;100884.06;12246365;19;20330;-88
2023/12/06 14:44:15;;;;;;;;;;;6.20;57.00;;;4.61;61.29;100897.56;12245997;19;19903;-89
2023/12/06 14:48:17;;;;;;;;;;;6.20;57.10;;;4.62;61.17;100903.59;12246466;19;19923;-87
2023/12/06 14:52:18;;;;;;;;;;;6.20;57.10;;;4.50;61.21;100885.81;12246438;19;19923;-89
2023/12/06 14:56:20;;;;;;;;;;;6.30;57.10;;;4.41;61.28;100866.25;12246744;19;19922;-89
2023/12/06 15:00:22;;;;;;;;;;;6.30;57.10;;;4.58;61.31;100907.16;12244322;19;19978;-89
2023/12/06 15:04:23;;;;;;;;;;;6.20;57.10;;;4.40;61.30;100877.47;12244702;19;19958;-89
2023/12/06 15:08:25;;;;;;;;;;;6.20;57.10;;;4.63;61.07;100920.81;12248004;19;20332;-89
2023/12/06 15:12:26;;;;;;;;;;;6.30;57.10;;;4.63;61.04;100916.47;12244096;19;19906;-89
2023/12/06 15:16:28;;;;;;;;;;;6.30;57.10;;;4.42;61.17;100892.03;12243938;19;19922;-89
2023/12/06 15:20:29;;;;;;;;;;;6.30;57.10;;;4.30;61.14;100871.72;12244933;19;19911;-90
2023/12/06 15:24:31;;;;;;;;;;;6.30;57.10;;;4.63;61.07;100939.75;12244130;19;19914;-89
2023/12/06 15:28:33;;;;;;;;;;;6.30;57.10;;;4.61;61.24;100941.53;12245214;19;19935;-90
2023/12/06 15:32:34;;;;;;;;;;;6.30;57.10;;;4.57;61.24;100926.16;12246994;19;19907;-90
2023/12/06 15:36:36;;;;;;;;;;;6.30;57.10;;;4.53;61.07;100925.38;12246349;19;19915;-90
2023/12/06 15:40:37;;;;;;;;;;;6.30;57.10;;;4.28;61.06;100881.25;12243308;19;19921;-90
2023/12/06 15:44:39;;;;;;;;;;;6.20;57.10;;;4.46;61.20;100923.00;12244591;19;19946;-90
2023/12/06 15:48:41;;;;;;;;;;;6.20;57.10;;;4.29;61.00;100900.16;12245075;19;19942;-90
2023/12/06 15:52:43;;;;;;;;;;;6.50;57.20;;;4.42;61.22;100925.66;12244555;19;20594;-90
2023/12/06 15:56:45;;;;;;;;;;;6.20;57.10;;;4.58;61.09;100961.47;12244721;19;19922;-90
2023/12/06 16:00:46;;;;;;;;;;;6.20;57.20;;;4.37;61.25;100937.84;12250679;19;19922;-90
2023/12/06 16:04:48;;;;;;;;;;;6.20;57.30;;;4.47;61.22;100961.75;12255439;19;19919;-90
2023/12/06 16:08:50;;;;;;;;;;;6.20;57.20;;;4.52;61.00;100978.00;12248290;19;20354;-90
2023/12/06 16:12:51;;;;;;;;;;;6.30;57.30;;;4.59;61.10;100992.47;12256158;19;20385;-90
2023/12/06 16:16:53;;;;;;;;;;;6.20;57.30;;;4.57;61.24;100996.81;12255755;19;19914;-90
2023/12/06 16:20:55;;;;;;;;;;;6.20;57.30;;;4.43;61.08;100976.50;12251809;19;19971;-91
2023/12/06 16:24:56;;;;;;;;;;;6.20;57.30;;;4.34;61.02;100961.19;12249821;19;19919;-91
2023/12/06 16:28:58;;;;;;;;;;;6.20;57.30;;;4.56;61.17;101007.19;12255652;19;19925;-91
2023/12/06 16:32:59;;;;;;;;;;;6.40;57.30;;;4.34;61.23;100981.03;12255006;19;19926;-91
2023/12/06 16:37:01;;;;;;;;;;;6.20;57.20;;;4.28;60.99;100976.88;12255080;19;19911;-91
2023/12/06 16:41:02;;;;;;;;;;;6.20;57.50;;;4.53;61.10;101009.88;12250048;19;19923;-91
2023/12/06 16:45:06;;;;;;;;;;;6.20;57.20;;;4.38;61.25;101004.19;12251534;19;20357;-91
2023/12/06 16:49:08;;;;;;;;;;;6.20;57.20;;;4.49;61.25;101024.63;12248997;19;19923;-91
2023/12/06 16:53:09;;;;;;;;;;;6.20;57.20;;;4.50;61.16;101028.88;12254521;19;19982;-91
2023/12/06 16:57:14;;;;;;;;;;;6.20;57.20;;;4.27;61.35;100989.84;12253631;19;20345;-91
2023/12/06 17:01:16;;;;;;;;;;;6.20;57.20;;;4.32;61.12;101004.38;12250576;19;19918;-91
2023/12/06 17:05:18;;;;;;;;;;;6.20;57.20;;;4.48;61.34;101035.84;12250223;19;19925;-91
2023/12/06 17:09:20;;;;;;;;;;;6.20;57.20;;;4.50;61.19;101041.81;12254194;19;20379;-91
2023/12/06 17:13:21;;;;;;;;;;;6.20;57.20;;;4.43;61.30;101027.38;12253015;19;19919;-91
2023/12/06 17:17:23;;;;;;;;;;;6.20;57.20;;;4.54;61.28;101046.03;12255184;19;19970;-91
2023/12/06 17:21:24;;;;;;;;;;;6.20;57.20;;;4.62;61.18;101053.63;12251201;19;19915;-92
2023/12/06 17:25:26;;;;;;;;;;;6.30;57.20;;;4.26;61.31;101001.91;12251197;19;19919;-92
2023/12/06 17:29:27;;;;;;;;;;;6.20;57.20;;;4.49;61.27;101057.38;12253743;19;19926;-91
2023/12/06 17:33:29;;;;;;;;;;;6.20;57.20;;;4.62;61.32;101076.88;12254134;19;20264;-92
2023/12/06 17:37:31;;;;;;;;;;;6.50;57.30;;;4.46;61.45;101053.16;12254815;19;19926;-92
2023/12/06 17:41:33;;;;;;;;;;;6.20;57.20;;;4.33;61.19;101037.06;12253664;19;19919;-92
2023/12/06 17:45:34;;;;;;;;;;;6.40;57.30;;;4.31;61.24;101033.66;12252168;19;19915;-92
2023/12/06 17:49:41;;;;;;;;;;;6.20;57.20;;;4.52;61.24;101067.66;12251662;19;19918;-92
2023/12/06 17:53:43;;;;;;;;;;;6.30;57.20;;;4.61;61.36;101093.28;12256757;19;19922;-92
2023/12/06 17:57:44;;;;;;;;;;;6.30;57.20;;;4.43;61.29;101068.75;12253762;19;19932;-92
2023/12/06 18:01:50;;;;;;;;;;;6.40;57.20;;;4.48;61.33;101074.63;12249636;19;19939;-92
2023/12/06 18:05:52;;;;;;;;;;;6.20;57.20;;;4.51;61.40;101071.09;12251280;19;20263;-92
2023/12/06 18:09:54;;;;;;;;;;;6.30;57.20;;;4.51;61.44;101084.91;12253895;19;19930;-92
2023/12/06 18:13:56;;;;;;;;;;;6.40;57.20;;;4.16;61.20;101031.47;12252572;19;19926;-92
2023/12/06 18:17:57;;;;;;;;;;;6.30;57.20;;;4.61;61.41;101109.63;12253757;19;20329;-92
2023/12/06 18:21:59;;;;;;;;;;;6.30;57.20;;;4.62;61.26;101111.34;12246243;19;19911;-92
2023/12/06 18:26:02;;;;;;;;;;;6.30;57.20;;;4.38;61.28;101074.00;12250141;19;19911;-92
2023/12/06 18:30:05;;;;;;;;;;;6.30;57.20;;;4.57;61.45;101102.00;12251229;19;19926;-92